sensor_id;sensor_type;location;lat;lon;timestamp;P1;durP1;ratioP1;P2;durP2;ratioP2
79438;SDS011;68889;48.232;10.110;2023-06-22T00:02:24;8.90;;;4.40;;
79438;SDS011;68889;48.232;10.110;2023-06-22T00:04:50;8.52;;;4.32;;
79438;SDS011;68889;48.232;10.110;2023-06-22T00:07:15;7.28;;;4.28;;
79438;SDS011;68889;48.232;10.110;2023-06-22T00:09:41;7.07;;;4.13;;
79438;SDS011;68889;48.232;10.110;2023-06-22T00:12:06;6.70;;;3.60;;
79438;SDS011;68889;48.232;10.110;2023-06-22T00:14:32;7.43;;;4.43;;
79438;SDS011;68889;48.232;10.110;2023-06-22T00:16:58;8.63;;;4.15;;
79438;SDS011;68889;48.232;10.110;2023-06-22T00:19:24;9.18;;;4.30;;
79438;SDS011;68889;48.232;10.110;2023-06-22T00:21:50;8.27;;;4.10;;
79438;SDS011;68889;48.232;10.110;2023-06-22T00:24:18;8.02;;;4.90;;
79438;SDS011;68889;48.232;10.110;2023-06-22T00:26:50;6.63;;;3.92;;
79438;SDS011;68889;48.232;10.110;2023-06-22T00:29:16;8.23;;;4.93;;
79438;SDS011;68889;48.232;10.110;2023-06-22T00:31:42;8.07;;;4.90;;
79438;SDS011;68889;48.232;10.110;2023-06-22T00:34:08;8.10;;;4.55;;
79438;SDS011;68889;48.232;10.110;2023-06-22T00:36:34;7.45;;;4.65;;
79438;SDS011;68889;48.232;10.110;2023-06-22T00:41:25;10.48;;;4.70;;
79438;SDS011;68889;48.232;10.110;2023-06-22T00:43:53;10.60;;;4.65;;
79438;SDS011;68889;48.232;10.110;2023-06-22T00:46:19;9.57;;;4.90;;
79438;SDS011;68889;48.232;10.110;2023-06-22T00:51:11;8.65;;;4.53;;
79438;SDS011;68889;48.232;10.110;2023-06-22T00:53:36;6.80;;;4.30;;
79438;SDS011;68889;48.232;10.110;2023-06-22T00:56:02;8.30;;;4.20;;
79438;SDS011;68889;48.232;10.110;2023-06-22T00:58:30;10.77;;;4.85;;
79438;SDS011;68889;48.232;10.110;2023-06-22T01:00:56;10.95;;;5.60;;
79438;SDS011;68889;48.232;10.110;2023-06-22T01:03:22;10.43;;;5.15;;
79438;SDS011;68889;48.232;10.110;2023-06-22T01:05:48;8.52;;;4.57;;
79438;SDS011;68889;48.232;10.110;2023-06-22T01:08:21;9.10;;;4.70;;
79438;SDS011;68889;48.232;10.110;2023-06-22T01:11:09;9.43;;;4.72;;
79438;SDS011;68889;48.232;10.110;2023-06-22T01:16:27;10.15;;;4.88;;
79438;SDS011;68889;48.232;10.110;2023-06-22T01:18:57;9.25;;;5.75;;
79438;SDS011;68889;48.232;10.110;2023-06-22T01:21:29;8.88;;;5.50;;
79438;SDS011;68889;48.232;10.110;2023-06-22T01:26:52;12.13;;;5.28;;
79438;SDS011;68889;48.232;10.110;2023-06-22T01:29:23;8.95;;;5.00;;
79438;SDS011;68889;48.232;10.110;2023-06-22T01:31:50;10.18;;;6.25;;
79438;SDS011;68889;48.232;10.110;2023-06-22T01:34:19;11.57;;;5.85;;
79438;SDS011;68889;48.232;10.110;2023-06-22T01:36:46;9.48;;;5.22;;
79438;SDS011;68889;48.232;10.110;2023-06-22T01:39:12;9.52;;;5.70;;
79438;SDS011;68889;48.232;10.110;2023-06-22T01:44:05;9.88;;;5.47;;
79438;SDS011;68889;48.232;10.110;2023-06-22T01:46:32;8.98;;;5.72;;
79438;SDS011;68889;48.232;10.110;2023-06-22T01:49:01;11.30;;;6.32;;
79438;SDS011;68889;48.232;10.110;2023-06-22T01:51:27;12.73;;;6.20;;
79438;SDS011;68889;48.232;10.110;2023-06-22T01:53:53;10.80;;;5.57;;
79438;SDS011;68889;48.232;10.110;2023-06-22T01:56:18;10.82;;;5.97;;
79438;SDS011;68889;48.232;10.110;2023-06-22T01:58:51;11.32;;;6.00;;
79438;SDS011;68889;48.232;10.110;2023-06-22T02:01:31;11.35;;;6.47;;
79438;SDS011;68889;48.232;10.110;2023-06-22T02:04:06;11.90;;;7.03;;
79438;SDS011;68889;48.232;10.110;2023-06-22T02:06:37;11.70;;;6.32;;
79438;SDS011;68889;48.232;10.110;2023-06-22T02:09:12;12.18;;;6.43;;
79438;SDS011;68889;48.232;10.110;2023-06-22T02:11:41;12.73;;;7.55;;
79438;SDS011;68889;48.232;10.110;2023-06-22T02:14:09;11.57;;;6.40;;
79438;SDS011;68889;48.232;10.110;2023-06-22T02:16:36;10.35;;;7.18;;
79438;SDS011;68889;48.232;10.110;2023-06-22T02:19:02;12.57;;;7.15;;
79438;SDS011;68889;48.232;10.110;2023-06-22T02:21:28;11.73;;;6.80;;
79438;SDS011;68889;48.232;10.110;2023-06-22T02:23:55;11.55;;;6.15;;
79438;SDS011;68889;48.232;10.110;2023-06-22T02:26:21;10.05;;;6.57;;
79438;SDS011;68889;48.232;10.110;2023-06-22T02:28:48;12.57;;;6.70;;
79438;SDS011;68889;48.232;10.110;2023-06-22T02:31:14;14.38;;;7.18;;
79438;SDS011;68889;48.232;10.110;2023-06-22T02:33:39;11.18;;;6.90;;
79438;SDS011;68889;48.232;10.110;2023-06-22T02:36:05;13.10;;;7.53;;
79438;SDS011;68889;48.232;10.110;2023-06-22T02:38:34;14.50;;;8.50;;
79438;SDS011;68889;48.232;10.110;2023-06-22T02:41:02;14.07;;;8.15;;
79438;SDS011;68889;48.232;10.110;2023-06-22T02:43:28;16.77;;;9.02;;
79438;SDS011;68889;48.232;10.110;2023-06-22T02:45:54;13.05;;;8.35;;
79438;SDS011;68889;48.232;10.110;2023-06-22T02:48:20;14.32;;;9.55;;
79438;SDS011;68889;48.232;10.110;2023-06-22T02:50:45;13.52;;;8.85;;
79438;SDS011;68889;48.232;10.110;2023-06-22T02:53:11;14.88;;;10.10;;
79438;SDS011;68889;48.232;10.110;2023-06-22T02:55:37;15.23;;;9.23;;
79438;SDS011;68889;48.232;10.110;2023-06-22T02:58:04;14.35;;;10.23;;
79438;SDS011;68889;48.232;10.110;2023-06-22T03:00:30;16.40;;;11.73;;
79438;SDS011;68889;48.232;10.110;2023-06-22T03:05:22;17.35;;;10.82;;
79438;SDS011;68889;48.232;10.110;2023-06-22T03:10:14;16.58;;;10.63;;
79438;SDS011;68889;48.232;10.110;2023-06-22T03:12:41;19.30;;;11.93;;
79438;SDS011;68889;48.232;10.110;2023-06-22T03:15:08;20.88;;;11.38;;
79438;SDS011;68889;48.232;10.110;2023-06-22T03:17:35;20.23;;;11.70;;
79438;SDS011;68889;48.232;10.110;2023-06-22T03:20:02;18.40;;;10.52;;
79438;SDS011;68889;48.232;10.110;2023-06-22T03:22:34;17.05;;;11.88;;
79438;SDS011;68889;48.232;10.110;2023-06-22T03:25:00;16.55;;;11.98;;
79438;SDS011;68889;48.232;10.110;2023-06-22T03:27:26;18.15;;;11.98;;
79438;SDS011;68889;48.232;10.110;2023-06-22T03:29:52;15.23;;;10.32;;
79438;SDS011;68889;48.232;10.110;2023-06-22T03:32:18;16.52;;;10.32;;
79438;SDS011;68889;48.232;10.110;2023-06-22T03:34:43;17.60;;;11.18;;
79438;SDS011;68889;48.232;10.110;2023-06-22T03:37:11;18.73;;;10.85;;
79438;SDS011;68889;48.232;10.110;2023-06-22T03:39:39;15.68;;;10.07;;
79438;SDS011;68889;48.232;10.110;2023-06-22T03:42:04;18.50;;;11.15;;
79438;SDS011;68889;48.232;10.110;2023-06-22T03:44:30;16.30;;;10.57;;
79438;SDS011;68889;48.232;10.110;2023-06-22T03:46:56;19.25;;;11.38;;
79438;SDS011;68889;48.232;10.110;2023-06-22T03:49:21;20.60;;;11.85;;
79438;SDS011;68889;48.232;10.110;2023-06-22T03:51:47;20.85;;;11.25;;
79438;SDS011;68889;48.232;10.110;2023-06-22T03:54:12;15.95;;;11.27;;
79438;SDS011;68889;48.232;10.110;2023-06-22T03:56:38;14.55;;;10.73;;
79438;SDS011;68889;48.232;10.110;2023-06-22T03:59:03;16.02;;;11.23;;
79438;SDS011;68889;48.232;10.110;2023-06-22T04:01:29;18.13;;;11.40;;
79438;SDS011;68889;48.232;10.110;2023-06-22T04:03:55;18.20;;;11.23;;
79438;SDS011;68889;48.232;10.110;2023-06-22T04:06:20;18.70;;;11.70;;
79438;SDS011;68889;48.232;10.110;2023-06-22T04:08:47;16.90;;;11.57;;
79438;SDS011;68889;48.232;10.110;2023-06-22T04:11:15;16.20;;;10.68;;
79438;SDS011;68889;48.232;10.110;2023-06-22T04:13:42;19.40;;;11.40;;
79438;SDS011;68889;48.232;10.110;2023-06-22T04:16:08;18.98;;;11.55;;
79438;SDS011;68889;48.232;10.110;2023-06-22T04:18:33;15.55;;;10.93;;
79438;SDS011;68889;48.232;10.110;2023-06-22T04:20:59;15.77;;;10.10;;
79438;SDS011;68889;48.232;10.110;2023-06-22T04:23:24;17.48;;;11.25;;
79438;SDS011;68889;48.232;10.110;2023-06-22T04:25:50;18.08;;;11.57;;
79438;SDS011;68889;48.232;10.110;2023-06-22T04:28:16;14.80;;;9.73;;
79438;SDS011;68889;48.232;10.110;2023-06-22T04:30:42;16.40;;;10.15;;
79438;SDS011;68889;48.232;10.110;2023-06-22T04:33:12;18.08;;;11.05;;
79438;SDS011;68889;48.232;10.110;2023-06-22T04:35:41;19.13;;;10.48;;
79438;SDS011;68889;48.232;10.110;2023-06-22T04:38:11;15.60;;;10.60;;
79438;SDS011;68889;48.232;10.110;2023-06-22T04:40:38;15.55;;;10.25;;
79438;SDS011;68889;48.232;10.110;2023-06-22T04:45:31;13.90;;;9.52;;
79438;SDS011;68889;48.232;10.110;2023-06-22T04:47:57;13.95;;;9.68;;
79438;SDS011;68889;48.232;10.110;2023-06-22T04:50:23;14.93;;;9.65;;
79438;SDS011;68889;48.232;10.110;2023-06-22T04:52:49;16.23;;;9.48;;
79438;SDS011;68889;48.232;10.110;2023-06-22T04:55:15;15.43;;;10.27;;
79438;SDS011;68889;48.232;10.110;2023-06-22T04:57:43;13.43;;;8.88;;
79438;SDS011;68889;48.232;10.110;2023-06-22T05:00:17;15.25;;;10.13;;
79438;SDS011;68889;48.232;10.110;2023-06-22T05:02:44;16.58;;;10.20;;
79438;SDS011;68889;48.232;10.110;2023-06-22T05:05:11;16.10;;;9.70;;
79438;SDS011;68889;48.232;10.110;2023-06-22T05:07:44;15.90;;;9.77;;
79438;SDS011;68889;48.232;10.110;2023-06-22T05:10:13;16.85;;;9.63;;
79438;SDS011;68889;48.232;10.110;2023-06-22T05:12:39;15.68;;;9.85;;
79438;SDS011;68889;48.232;10.110;2023-06-22T05:15:08;13.02;;;8.68;;
79438;SDS011;68889;48.232;10.110;2023-06-22T05:17:35;16.10;;;9.48;;
79438;SDS011;68889;48.232;10.110;2023-06-22T05:20:01;12.35;;;8.68;;
79438;SDS011;68889;48.232;10.110;2023-06-22T05:22:27;12.02;;;7.80;;
79438;SDS011;68889;48.232;10.110;2023-06-22T05:24:53;12.75;;;8.02;;
79438;SDS011;68889;48.232;10.110;2023-06-22T05:27:19;13.32;;;7.65;;
79438;SDS011;68889;48.232;10.110;2023-06-22T05:29:44;12.95;;;8.75;;
79438;SDS011;68889;48.232;10.110;2023-06-22T05:32:10;13.80;;;8.20;;
79438;SDS011;68889;48.232;10.110;2023-06-22T05:34:35;12.90;;;7.70;;
79438;SDS011;68889;48.232;10.110;2023-06-22T05:37:01;11.57;;;7.47;;
79438;SDS011;68889;48.232;10.110;2023-06-22T05:39:27;11.40;;;7.28;;
79438;SDS011;68889;48.232;10.110;2023-06-22T05:41:53;11.82;;;7.22;;
79438;SDS011;68889;48.232;10.110;2023-06-22T05:44:19;9.70;;;6.93;;
79438;SDS011;68889;48.232;10.110;2023-06-22T05:46:44;11.20;;;7.57;;
79438;SDS011;68889;48.232;10.110;2023-06-22T05:49:12;11.50;;;7.65;;
79438;SDS011;68889;48.232;10.110;2023-06-22T05:51:38;11.50;;;7.40;;
79438;SDS011;68889;48.232;10.110;2023-06-22T05:54:04;10.00;;;6.40;;
79438;SDS011;68889;48.232;10.110;2023-06-22T05:56:29;10.63;;;7.18;;
79438;SDS011;68889;48.232;10.110;2023-06-22T05:58:55;12.82;;;7.18;;
79438;SDS011;68889;48.232;10.110;2023-06-22T06:01:20;10.20;;;6.70;;
79438;SDS011;68889;48.232;10.110;2023-06-22T06:03:46;10.13;;;6.45;;
79438;SDS011;68889;48.232;10.110;2023-06-22T06:06:13;11.40;;;6.93;;
79438;SDS011;68889;48.232;10.110;2023-06-22T06:08:39;11.32;;;7.03;;
79438;SDS011;68889;48.232;10.110;2023-06-22T06:11:05;9.77;;;5.90;;
79438;SDS011;68889;48.232;10.110;2023-06-22T06:13:30;10.75;;;6.75;;
79438;SDS011;68889;48.232;10.110;2023-06-22T06:15:56;11.43;;;6.88;;
79438;SDS011;68889;48.232;10.110;2023-06-22T06:20:47;9.65;;;6.55;;
79438;SDS011;68889;48.232;10.110;2023-06-22T06:23:13;12.45;;;6.38;;
79438;SDS011;68889;48.232;10.110;2023-06-22T06:25:39;12.18;;;6.85;;
79438;SDS011;68889;48.232;10.110;2023-06-22T06:28:04;11.35;;;6.63;;
79438;SDS011;68889;48.232;10.110;2023-06-22T06:32:55;11.23;;;5.75;;
79438;SDS011;68889;48.232;10.110;2023-06-22T06:35:21;11.75;;;6.43;;
79438;SDS011;68889;48.232;10.110;2023-06-22T06:40:13;11.18;;;5.65;;
79438;SDS011;68889;48.232;10.110;2023-06-22T06:42:41;10.98;;;6.40;;
79438;SDS011;68889;48.232;10.110;2023-06-22T06:45:09;9.23;;;5.68;;
79438;SDS011;68889;48.232;10.110;2023-06-22T06:47:47;12.32;;;6.53;;
79438;SDS011;68889;48.232;10.110;2023-06-22T06:50:13;10.93;;;5.95;;
79438;SDS011;68889;48.232;10.110;2023-06-22T06:55:05;11.73;;;6.40;;
79438;SDS011;68889;48.232;10.110;2023-06-22T06:57:33;10.07;;;5.90;;
79438;SDS011;68889;48.232;10.110;2023-06-22T06:59:59;12.10;;;6.30;;
79438;SDS011;68889;48.232;10.110;2023-06-22T07:04:51;11.45;;;5.93;;
79438;SDS011;68889;48.232;10.110;2023-06-22T07:09:41;10.55;;;5.63;;
79438;SDS011;68889;48.232;10.110;2023-06-22T07:12:07;10.43;;;5.90;;
79438;SDS011;68889;48.232;10.110;2023-06-22T07:14:33;10.82;;;5.90;;
79438;SDS011;68889;48.232;10.110;2023-06-22T07:19:24;10.95;;;5.82;;
79438;SDS011;68889;48.232;10.110;2023-06-22T07:21:51;9.00;;;5.95;;
79438;SDS011;68889;48.232;10.110;2023-06-22T07:24:18;10.20;;;5.72;;
79438;SDS011;68889;48.232;10.110;2023-06-22T07:26:45;9.85;;;5.78;;
79438;SDS011;68889;48.232;10.110;2023-06-22T07:29:13;12.20;;;7.03;;
79438;SDS011;68889;48.232;10.110;2023-06-22T07:31:38;11.07;;;6.53;;
79438;SDS011;68889;48.232;10.110;2023-06-22T07:34:06;10.10;;;6.53;;
79438;SDS011;68889;48.232;10.110;2023-06-22T07:36:31;9.45;;;6.35;;
79438;SDS011;68889;48.232;10.110;2023-06-22T07:38:57;8.65;;;5.97;;
79438;SDS011;68889;48.232;10.110;2023-06-22T07:41:22;11.15;;;6.80;;
79438;SDS011;68889;48.232;10.110;2023-06-22T07:43:48;10.73;;;6.82;;
79438;SDS011;68889;48.232;10.110;2023-06-22T07:46:14;10.60;;;6.55;;
79438;SDS011;68889;48.232;10.110;2023-06-22T07:48:40;10.10;;;6.13;;
79438;SDS011;68889;48.232;10.110;2023-06-22T07:51:07;11.02;;;6.05;;
79438;SDS011;68889;48.232;10.110;2023-06-22T07:53:32;12.15;;;6.65;;
79438;SDS011;68889;48.232;10.110;2023-06-22T07:55:58;12.90;;;6.78;;
79438;SDS011;68889;48.232;10.110;2023-06-22T07:58:23;10.00;;;6.55;;
79438;SDS011;68889;48.232;10.110;2023-06-22T08:00:49;8.40;;;6.32;;
79438;SDS011;68889;48.232;10.110;2023-06-22T08:03:15;11.05;;;8.18;;
79438;SDS011;68889;48.232;10.110;2023-06-22T08:05:40;10.32;;;6.95;;
79438;SDS011;68889;48.232;10.110;2023-06-22T08:08:06;11.38;;;6.85;;
79438;SDS011;68889;48.232;10.110;2023-06-22T08:10:31;11.60;;;7.43;;
79438;SDS011;68889;48.232;10.110;2023-06-22T08:12:57;10.43;;;7.07;;
79438;SDS011;68889;48.232;10.110;2023-06-22T08:15:23;10.50;;;6.35;;
79438;SDS011;68889;48.232;10.110;2023-06-22T08:17:50;9.07;;;5.78;;
79438;SDS011;68889;48.232;10.110;2023-06-22T08:20:17;10.15;;;6.43;;
79438;SDS011;68889;48.232;10.110;2023-06-22T08:22:43;8.50;;;5.75;;
79438;SDS011;68889;48.232;10.110;2023-06-22T08:25:09;10.05;;;6.80;;
79438;SDS011;68889;48.232;10.110;2023-06-22T08:27:35;8.82;;;6.45;;
79438;SDS011;68889;48.232;10.110;2023-06-22T08:30:01;8.60;;;5.95;;
79438;SDS011;68889;48.232;10.110;2023-06-22T08:32:27;8.93;;;6.07;;
79438;SDS011;68889;48.232;10.110;2023-06-22T08:34:57;10.98;;;6.47;;
79438;SDS011;68889;48.232;10.110;2023-06-22T08:37:22;9.73;;;6.63;;
79438;SDS011;68889;48.232;10.110;2023-06-22T08:39:49;8.68;;;6.78;;
79438;SDS011;68889;48.232;10.110;2023-06-22T08:42:15;8.88;;;6.30;;
79438;SDS011;68889;48.232;10.110;2023-06-22T08:44:41;10.45;;;5.68;;
79438;SDS011;68889;48.232;10.110;2023-06-22T08:47:06;13.38;;;6.93;;
79438;SDS011;68889;48.232;10.110;2023-06-22T08:49:32;10.30;;;6.07;;
79438;SDS011;68889;48.232;10.110;2023-06-22T08:51:58;8.02;;;5.68;;
79438;SDS011;68889;48.232;10.110;2023-06-22T08:54:24;9.75;;;5.68;;
79438;SDS011;68889;48.232;10.110;2023-06-22T08:56:50;17.10;;;6.18;;
79438;SDS011;68889;48.232;10.110;2023-06-22T08:59:15;10.45;;;6.35;;
79438;SDS011;68889;48.232;10.110;2023-06-22T09:01:41;11.93;;;6.40;;
79438;SDS011;68889;48.232;10.110;2023-06-22T09:04:10;9.00;;;6.32;;
79438;SDS011;68889;48.232;10.110;2023-06-22T09:06:36;7.88;;;5.47;;
79438;SDS011;68889;48.232;10.110;2023-06-22T09:09:06;12.65;;;6.68;;
79438;SDS011;68889;48.232;10.110;2023-06-22T09:11:31;11.48;;;6.95;;
79438;SDS011;68889;48.232;10.110;2023-06-22T09:13:57;9.32;;;5.88;;
79438;SDS011;68889;48.232;10.110;2023-06-22T09:16:22;9.75;;;6.05;;
79438;SDS011;68889;48.232;10.110;2023-06-22T09:18:48;8.00;;;5.85;;
79438;SDS011;68889;48.232;10.110;2023-06-22T09:21:14;9.30;;;6.25;;
79438;SDS011;68889;48.232;10.110;2023-06-22T09:23:39;10.93;;;6.03;;
79438;SDS011;68889;48.232;10.110;2023-06-22T09:26:05;15.13;;;6.43;;
79438;SDS011;68889;48.232;10.110;2023-06-22T09:28:30;10.15;;;6.28;;
79438;SDS011;68889;48.232;10.110;2023-06-22T09:30:56;12.98;;;6.47;;
79438;SDS011;68889;48.232;10.110;2023-06-22T09:33:23;9.23;;;6.57;;
79438;SDS011;68889;48.232;10.110;2023-06-22T09:35:49;11.10;;;6.53;;
79438;SDS011;68889;48.232;10.110;2023-06-22T09:38:16;10.63;;;6.32;;
79438;SDS011;68889;48.232;10.110;2023-06-22T09:40:41;10.60;;;6.60;;
79438;SDS011;68889;48.232;10.110;2023-06-22T09:43:07;9.88;;;6.85;;
79438;SDS011;68889;48.232;10.110;2023-06-22T09:45:33;10.88;;;6.38;;
79438;SDS011;68889;48.232;10.110;2023-06-22T09:47:58;10.50;;;6.65;;
79438;SDS011;68889;48.232;10.110;2023-06-22T09:50:24;8.90;;;6.03;;
79438;SDS011;68889;48.232;10.110;2023-06-22T09:52:49;10.55;;;6.00;;
79438;SDS011;68889;48.232;10.110;2023-06-22T09:55:19;8.38;;;5.70;;
79438;SDS011;68889;48.232;10.110;2023-06-22T09:57:48;12.68;;;6.03;;
79438;SDS011;68889;48.232;10.110;2023-06-22T10:00:14;11.60;;;6.28;;
79438;SDS011;68889;48.232;10.110;2023-06-22T10:02:41;10.77;;;6.07;;
79438;SDS011;68889;48.232;10.110;2023-06-22T10:05:07;10.70;;;5.28;;
79438;SDS011;68889;48.232;10.110;2023-06-22T10:07:33;10.18;;;5.70;;
79438;SDS011;68889;48.232;10.110;2023-06-22T10:09:59;10.30;;;6.00;;
79438;SDS011;68889;48.232;10.110;2023-06-22T10:12:26;9.82;;;5.88;;
79438;SDS011;68889;48.232;10.110;2023-06-22T10:14:52;8.32;;;5.53;;
79438;SDS011;68889;48.232;10.110;2023-06-22T10:17:18;12.48;;;6.25;;
79438;SDS011;68889;48.232;10.110;2023-06-22T10:19:43;11.05;;;6.03;;
79438;SDS011;68889;48.232;10.110;2023-06-22T10:22:09;12.80;;;5.90;;
79438;SDS011;68889;48.232;10.110;2023-06-22T10:24:34;12.73;;;6.32;;
79438;SDS011;68889;48.232;10.110;2023-06-22T10:27:00;14.35;;;7.85;;
79438;SDS011;68889;48.232;10.110;2023-06-22T10:29:25;10.30;;;6.20;;
79438;SDS011;68889;48.232;10.110;2023-06-22T10:31:51;6.40;;;4.82;;
79438;SDS011;68889;48.232;10.110;2023-06-22T10:34:17;9.40;;;6.00;;
79438;SDS011;68889;48.232;10.110;2023-06-22T10:36:42;10.88;;;5.68;;
79438;SDS011;68889;48.232;10.110;2023-06-22T10:39:08;8.23;;;5.90;;
79438;SDS011;68889;48.232;10.110;2023-06-22T10:41:34;9.57;;;5.68;;
79438;SDS011;68889;48.232;10.110;2023-06-22T10:44:00;9.27;;;5.45;;
79438;SDS011;68889;48.232;10.110;2023-06-22T10:46:26;11.82;;;6.50;;
79438;SDS011;68889;48.232;10.110;2023-06-22T10:48:52;7.82;;;4.93;;
79438;SDS011;68889;48.232;10.110;2023-06-22T10:51:20;7.80;;;6.07;;
79438;SDS011;68889;48.232;10.110;2023-06-22T10:53:45;12.20;;;6.32;;
79438;SDS011;68889;48.232;10.110;2023-06-22T10:56:11;7.55;;;5.45;;
79438;SDS011;68889;48.232;10.110;2023-06-22T10:58:37;9.20;;;6.05;;
79438;SDS011;68889;48.232;10.110;2023-06-22T11:01:02;10.70;;;5.93;;
79438;SDS011;68889;48.232;10.110;2023-06-22T11:03:28;13.30;;;6.45;;
79438;SDS011;68889;48.232;10.110;2023-06-22T11:05:53;8.70;;;5.78;;
79438;SDS011;68889;48.232;10.110;2023-06-22T11:08:19;9.93;;;5.53;;
79438;SDS011;68889;48.232;10.110;2023-06-22T11:10:45;10.27;;;6.10;;
79438;SDS011;68889;48.232;10.110;2023-06-22T11:13:10;11.07;;;6.82;;
79438;SDS011;68889;48.232;10.110;2023-06-22T11:15:36;9.85;;;5.80;;
79438;SDS011;68889;48.232;10.110;2023-06-22T11:18:01;12.05;;;6.00;;
79438;SDS011;68889;48.232;10.110;2023-06-22T11:20:27;7.82;;;5.60;;
79438;SDS011;68889;48.232;10.110;2023-06-22T11:22:53;10.95;;;5.70;;
79438;SDS011;68889;48.232;10.110;2023-06-22T11:25:18;10.73;;;6.03;;
79438;SDS011;68889;48.232;10.110;2023-06-22T11:27:44;7.75;;;5.43;;
79438;SDS011;68889;48.232;10.110;2023-06-22T11:30:09;9.30;;;5.95;;
79438;SDS011;68889;48.232;10.110;2023-06-22T11:32:35;12.55;;;5.90;;
79438;SDS011;68889;48.232;10.110;2023-06-22T11:35:01;7.13;;;5.43;;
79438;SDS011;68889;48.232;10.110;2023-06-22T11:37:26;10.43;;;6.05;;
79438;SDS011;68889;48.232;10.110;2023-06-22T11:39:52;12.35;;;6.00;;
79438;SDS011;68889;48.232;10.110;2023-06-22T11:42:19;8.60;;;5.82;;
79438;SDS011;68889;48.232;10.110;2023-06-22T11:44:45;8.38;;;5.10;;
79438;SDS011;68889;48.232;10.110;2023-06-22T11:47:11;8.85;;;6.00;;
79438;SDS011;68889;48.232;10.110;2023-06-22T11:49:37;10.75;;;6.68;;
79438;SDS011;68889;48.232;10.110;2023-06-22T11:52:02;11.48;;;6.22;;
79438;SDS011;68889;48.232;10.110;2023-06-22T11:54:28;11.60;;;5.70;;
79438;SDS011;68889;48.232;10.110;2023-06-22T11:56:53;10.50;;;5.75;;
79438;SDS011;68889;48.232;10.110;2023-06-22T11:59:19;7.88;;;5.85;;
79438;SDS011;68889;48.232;10.110;2023-06-22T12:01:46;12.88;;;6.13;;
79438;SDS011;68889;48.232;10.110;2023-06-22T12:04:11;10.38;;;5.40;;
79438;SDS011;68889;48.232;10.110;2023-06-22T12:06:37;11.05;;;6.80;;
79438;SDS011;68889;48.232;10.110;2023-06-22T12:09:06;14.30;;;5.65;;
79438;SDS011;68889;48.232;10.110;2023-06-22T12:11:32;9.20;;;6.03;;
79438;SDS011;68889;48.232;10.110;2023-06-22T12:13:58;12.85;;;5.80;;
79438;SDS011;68889;48.232;10.110;2023-06-22T12:16:26;9.98;;;5.03;;
79438;SDS011;68889;48.232;10.110;2023-06-22T12:18:53;9.15;;;5.50;;
79438;SDS011;68889;48.232;10.110;2023-06-22T12:21:18;7.78;;;5.00;;
79438;SDS011;68889;48.232;10.110;2023-06-22T12:23:44;10.65;;;5.85;;
79438;SDS011;68889;48.232;10.110;2023-06-22T12:26:10;8.20;;;5.00;;
79438;SDS011;68889;48.232;10.110;2023-06-22T12:28:35;10.65;;;5.47;;
79438;SDS011;68889;48.232;10.110;2023-06-22T12:31:01;11.30;;;5.25;;
79438;SDS011;68889;48.232;10.110;2023-06-22T12:33:26;11.73;;;5.90;;
79438;SDS011;68889;48.232;10.110;2023-06-22T12:35:52;10.80;;;5.03;;
79438;SDS011;68889;48.232;10.110;2023-06-22T12:38:17;9.13;;;5.10;;
79438;SDS011;68889;48.232;10.110;2023-06-22T12:40:43;10.05;;;4.72;;
79438;SDS011;68889;48.232;10.110;2023-06-22T12:43:08;8.07;;;4.75;;
79438;SDS011;68889;48.232;10.110;2023-06-22T12:45:34;11.07;;;5.03;;
79438;SDS011;68889;48.232;10.110;2023-06-22T12:48:00;8.18;;;4.68;;
79438;SDS011;68889;48.232;10.110;2023-06-22T12:50:25;9.85;;;5.63;;
79438;SDS011;68889;48.232;10.110;2023-06-22T12:52:51;9.25;;;5.15;;
79438;SDS011;68889;48.232;10.110;2023-06-22T12:55:17;11.23;;;5.32;;
79438;SDS011;68889;48.232;10.110;2023-06-22T12:57:42;10.23;;;5.22;;
79438;SDS011;68889;48.232;10.110;2023-06-22T13:00:08;11.00;;;6.50;;
79438;SDS011;68889;48.232;10.110;2023-06-22T13:02:35;11.43;;;5.43;;
79438;SDS011;68889;48.232;10.110;2023-06-22T13:05:01;12.27;;;5.70;;
79438;SDS011;68889;48.232;10.110;2023-06-22T13:07:27;9.70;;;5.85;;
79438;SDS011;68889;48.232;10.110;2023-06-22T13:09:53;11.18;;;5.88;;
79438;SDS011;68889;48.232;10.110;2023-06-22T13:12:19;12.00;;;5.75;;
79438;SDS011;68889;48.232;10.110;2023-06-22T13:14:45;12.43;;;5.45;;
79438;SDS011;68889;48.232;10.110;2023-06-22T13:17:12;10.10;;;5.05;;
79438;SDS011;68889;48.232;10.110;2023-06-22T13:19:38;12.10;;;6.05;;
79438;SDS011;68889;48.232;10.110;2023-06-22T13:22:04;10.18;;;5.82;;
79438;SDS011;68889;48.232;10.110;2023-06-22T13:24:30;10.32;;;5.60;;
79438;SDS011;68889;48.232;10.110;2023-06-22T13:26:56;11.35;;;5.68;;
79438;SDS011;68889;48.232;10.110;2023-06-22T13:29:24;15.75;;;5.40;;
79438;SDS011;68889;48.232;10.110;2023-06-22T13:31:50;12.30;;;6.18;;
79438;SDS011;68889;48.232;10.110;2023-06-22T13:34:15;16.23;;;6.38;;
79438;SDS011;68889;48.232;10.110;2023-06-22T13:36:41;12.77;;;5.40;;
79438;SDS011;68889;48.232;10.110;2023-06-22T13:39:06;12.57;;;5.63;;
79438;SDS011;68889;48.232;10.110;2023-06-22T13:41:32;11.45;;;5.60;;
79438;SDS011;68889;48.232;10.110;2023-06-22T13:43:57;10.70;;;5.32;;
79438;SDS011;68889;48.232;10.110;2023-06-22T13:46:23;11.13;;;5.95;;
79438;SDS011;68889;48.232;10.110;2023-06-22T13:48:48;13.35;;;5.85;;
79438;SDS011;68889;48.232;10.110;2023-06-22T13:51:14;15.50;;;6.35;;
79438;SDS011;68889;48.232;10.110;2023-06-22T13:53:39;13.98;;;5.70;;
79438;SDS011;68889;48.232;10.110;2023-06-22T13:56:05;12.43;;;5.60;;
79438;SDS011;68889;48.232;10.110;2023-06-22T13:58:30;12.27;;;5.40;;
79438;SDS011;68889;48.232;10.110;2023-06-22T14:00:56;9.57;;;5.55;;
79438;SDS011;68889;48.232;10.110;2023-06-22T14:03:21;10.70;;;5.65;;
79438;SDS011;68889;48.232;10.110;2023-06-22T14:05:47;12.35;;;5.95;;
79438;SDS011;68889;48.232;10.110;2023-06-22T14:08:13;11.75;;;6.05;;
79438;SDS011;68889;48.232;10.110;2023-06-22T14:10:39;10.68;;;5.90;;
79438;SDS011;68889;48.232;10.110;2023-06-22T14:13:05;10.32;;;6.20;;
79438;SDS011;68889;48.232;10.110;2023-06-22T14:15:31;10.38;;;6.05;;
79438;SDS011;68889;48.232;10.110;2023-06-22T14:17:57;11.02;;;6.05;;
79438;SDS011;68889;48.232;10.110;2023-06-22T14:20:22;9.68;;;6.38;;
79438;SDS011;68889;48.232;10.110;2023-06-22T14:22:48;12.27;;;6.75;;
79438;SDS011;68889;48.232;10.110;2023-06-22T14:25:13;12.15;;;6.72;;
79438;SDS011;68889;48.232;10.110;2023-06-22T14:27:39;9.07;;;6.43;;
79438;SDS011;68889;48.232;10.110;2023-06-22T14:30:04;10.20;;;5.82;;
79438;SDS011;68889;48.232;10.110;2023-06-22T14:32:31;13.13;;;6.10;;
79438;SDS011;68889;48.232;10.110;2023-06-22T14:34:56;13.70;;;6.80;;
79438;SDS011;68889;48.232;10.110;2023-06-22T14:37:22;12.82;;;6.10;;
79438;SDS011;68889;48.232;10.110;2023-06-22T14:39:47;14.95;;;6.68;;
79438;SDS011;68889;48.232;10.110;2023-06-22T14:42:13;10.55;;;6.13;;
79438;SDS011;68889;48.232;10.110;2023-06-22T14:44:38;13.38;;;5.82;;
79438;SDS011;68889;48.232;10.110;2023-06-22T14:47:04;11.55;;;6.07;;
79438;SDS011;68889;48.232;10.110;2023-06-22T14:49:30;11.13;;;6.07;;
79438;SDS011;68889;48.232;10.110;2023-06-22T14:51:55;9.57;;;5.57;;
79438;SDS011;68889;48.232;10.110;2023-06-22T14:54:21;10.98;;;6.50;;
79438;SDS011;68889;48.232;10.110;2023-06-22T14:56:47;13.02;;;6.40;;